createdAt,value
2019-02-11T00:04:26.561Z,4.50
2019-02-11T00:09:31.710Z,4.50
2019-02-11T00:14:36.829Z,4.40
2019-02-11T00:19:41.988Z,4.20
2019-02-11T00:24:47.028Z,4.10
2019-02-11T00:29:51.830Z,4.20
2019-02-11T00:34:57.448Z,4.40
2019-02-11T00:40:02.752Z,4.50
2019-02-11T00:45:08.641Z,4.70
2019-02-11T00:50:13.805Z,4.80
2019-02-11T00:55:19.787Z,4.70
2019-02-11T01:00:24.940Z,4.70
2019-02-11T01:05:30.028Z,3.40
2019-02-11T01:10:35.518Z,3.00
2019-02-11T01:15:40.792Z,3.40
2019-02-11T01:20:45.977Z,3.80
2019-02-11T01:25:51.054Z,4.20
2019-02-11T01:30:55.997Z,4.30
2019-02-11T01:36:01.402Z,4.50
2019-02-11T01:41:06.649Z,4.20
2019-02-11T01:46:11.724Z,4.10
2019-02-11T01:51:16.653Z,4.30
2019-02-11T01:56:21.523Z,4.40
2019-02-11T02:01:26.521Z,4.50
2019-02-11T02:06:31.849Z,4.40
2019-02-11T02:11:37.333Z,4.40
2019-02-11T02:16:42.197Z,4.60
2019-02-11T02:21:47.201Z,4.60
2019-02-11T02:26:52.082Z,4.60
2019-02-11T02:31:57.221Z,4.70
2019-02-11T02:37:02.000Z,4.80
2019-02-11T02:42:06.873Z,4.80
2019-02-11T02:47:11.947Z,4.90
2019-02-11T02:52:16.881Z,4.90
2019-02-11T02:57:21.949Z,4.90
2019-02-11T03:02:26.749Z,4.90
2019-02-11T03:07:31.698Z,4.90
2019-02-11T03:12:36.649Z,4.90
2019-02-11T03:17:41.643Z,5.00
2019-02-11T03:22:46.672Z,4.90
2019-02-11T03:27:51.761Z,4.90
2019-02-11T03:32:56.719Z,4.80
2019-02-11T03:38:01.620Z,4.80
2019-02-11T03:43:06.768Z,4.90
2019-02-11T03:48:12.177Z,4.80
2019-02-11T03:53:17.341Z,5.00
2019-02-11T03:58:22.488Z,5.00
2019-02-11T04:03:27.545Z,4.80
2019-02-11T04:08:33.360Z,5.00
2019-02-11T04:13:38.245Z,4.90
2019-02-11T04:18:43.573Z,4.80
2019-02-11T04:23:48.824Z,4.90
2019-02-11T04:28:54.094Z,4.90
2019-02-11T04:33:59.538Z,4.90
2019-02-11T04:39:05.998Z,4.80
2019-02-11T04:44:10.803Z,4.80
2019-02-11T04:49:15.685Z,4.80
2019-02-11T04:54:20.600Z,4.80
2019-02-11T04:59:25.697Z,4.70
2019-02-11T05:04:30.908Z,4.80
2019-02-11T05:09:36.132Z,4.80
2019-02-11T05:14:43.940Z,4.70
2019-02-11T05:19:47.725Z,4.70
2019-02-11T05:24:53.249Z,4.70
2019-02-11T05:29:58.442Z,4.70
2019-02-11T05:35:03.922Z,4.80
2019-02-11T05:40:10.261Z,4.80
2019-02-11T05:45:15.308Z,4.80
2019-02-11T05:50:20.529Z,4.70
2019-02-11T05:55:25.377Z,4.80
2019-02-11T06:00:30.917Z,4.80
2019-02-11T06:05:35.845Z,4.60
2019-02-11T06:10:41.261Z,4.80
2019-02-11T06:15:46.165Z,4.70
2019-02-11T06:20:51.589Z,4.50
2019-02-11T06:25:56.585Z,4.60
2019-02-11T06:31:01.988Z,4.60
2019-02-11T06:36:12.579Z,4.50
2019-02-11T06:41:14.272Z,4.60
2019-02-11T06:46:19.368Z,4.60
2019-02-11T06:51:24.572Z,4.60
2019-02-11T06:56:29.649Z,4.50
2019-02-11T07:01:34.521Z,4.60
2019-02-11T07:06:40.018Z,4.60
2019-02-11T07:11:45.076Z,4.50
2019-02-11T07:16:50.349Z,4.50
2019-02-11T07:21:55.431Z,4.50
2019-02-11T07:27:00.325Z,4.30
2019-02-11T07:32:05.463Z,4.20
2019-02-11T07:37:10.407Z,4.20
2019-02-11T07:42:34.526Z,4.30
2019-02-11T07:47:39.325Z,4.30
2019-02-11T07:52:44.568Z,4.20
2019-02-11T07:57:49.963Z,4.20
2019-02-11T08:02:55.677Z,4.30
2019-02-11T08:08:00.921Z,4.40
2019-02-11T08:13:05.804Z,4.30
2019-02-11T08:18:11.111Z,4.30
2019-02-11T08:23:16.306Z,4.40
2019-02-11T08:28:21.485Z,4.40
2019-02-11T08:33:26.696Z,4.60
2019-02-11T08:38:32.080Z,4.60
2019-02-11T08:43:36.986Z,4.50
2019-02-11T08:48:42.215Z,4.60
2019-02-11T08:53:47.119Z,4.70
2019-02-11T08:58:52.265Z,4.90
2019-02-11T09:03:57.017Z,4.80
2019-02-11T09:09:06.359Z,4.80
2019-02-11T09:14:11.564Z,4.90
2019-02-11T09:19:16.545Z,4.90
2019-02-11T09:24:21.829Z,4.90
2019-02-11T09:29:27.217Z,5.00
2019-02-11T09:34:32.165Z,5.10
2019-02-11T09:39:37.229Z,5.10
2019-02-11T09:44:42.212Z,5.10
2019-02-11T09:50:09.777Z,5.10
2019-02-11T09:55:33.709Z,5.20
2019-02-11T10:00:38.633Z,5.20
2019-02-11T10:05:43.549Z,5.20
2019-02-11T10:10:48.773Z,5.40
2019-02-11T10:15:54.125Z,5.40
2019-02-11T10:20:59.681Z,5.50
2019-02-11T10:26:04.945Z,5.60
2019-02-11T10:31:10.137Z,5.60
2019-02-11T10:36:15.733Z,5.70
2019-02-11T10:41:20.685Z,6.00
2019-02-11T10:46:25.886Z,6.00
2019-02-11T10:51:31.149Z,6.00
2019-02-11T10:56:36.292Z,5.90
2019-02-11T11:01:41.808Z,6.00
2019-02-11T11:06:46.708Z,6.00
2019-02-11T11:11:52.138Z,5.90
2019-02-11T11:16:57.369Z,6.10
2019-02-11T11:22:02.320Z,6.30
2019-02-11T11:27:07.573Z,6.30
2019-02-11T11:32:12.732Z,6.40
2019-02-11T11:37:17.899Z,6.40
2019-02-11T11:42:23.217Z,6.40
2019-02-11T11:47:28.551Z,6.40
2019-02-11T11:52:33.972Z,6.60
2019-02-11T11:57:38.898Z,6.70
2019-02-11T12:03:00.400Z,6.80
2019-02-11T12:07:51.009Z,6.80
2019-02-11T12:12:55.978Z,6.80
2019-02-11T12:18:00.985Z,6.70
2019-02-11T12:23:06.218Z,6.70
2019-02-11T12:28:11.411Z,6.90
2019-02-11T12:33:16.708Z,7.10
2019-02-11T12:38:21.737Z,7.20
2019-02-11T12:43:26.707Z,7.30
2019-02-11T12:48:32.256Z,7.10
2019-02-11T12:53:37.863Z,7.00
2019-02-11T12:58:42.756Z,7.00
2019-02-11T13:03:47.713Z,7.00
2019-02-11T13:08:53.121Z,7.00
2019-02-11T13:13:58.057Z,7.00
2019-02-11T13:19:03.324Z,7.10
2019-02-11T13:24:08.255Z,6.90
2019-02-11T13:29:13.690Z,6.90
2019-02-11T13:34:18.684Z,7.00
2019-02-11T13:39:23.942Z,6.90
2019-02-11T13:44:29.253Z,6.90
2019-02-11T13:49:34.508Z,7.00
2019-02-11T13:54:39.449Z,7.00
2019-02-11T13:59:44.452Z,6.60
2019-02-11T14:04:49.616Z,6.60
2019-02-11T14:09:55.096Z,6.70
2019-02-11T14:15:00.026Z,6.30
2019-02-11T14:20:05.420Z,6.60
2019-02-11T14:25:10.420Z,6.30
2019-02-11T14:30:16.139Z,6.80
2019-02-11T14:35:21.128Z,7.10
2019-02-11T14:40:26.444Z,7.10
2019-02-11T14:45:31.345Z,7.10
2019-02-11T14:50:36.559Z,7.00
2019-02-11T14:55:41.861Z,6.70
2019-02-11T15:00:47.064Z,7.30
2019-02-11T15:05:51.961Z,7.10
2019-02-11T15:10:57.147Z,7.60
2019-02-11T15:16:02.381Z,7.40
2019-02-11T15:21:07.699Z,7.50
2019-02-11T15:26:12.829Z,7.20
2019-02-11T15:31:17.714Z,7.40
2019-02-11T15:36:22.714Z,7.40
2019-02-11T15:41:27.862Z,7.00
2019-02-11T15:46:33.040Z,7.10
2019-02-11T15:51:38.297Z,7.20
2019-02-11T15:56:43.203Z,7.30
2019-02-11T16:01:48.058Z,7.50
2019-02-11T16:06:53.057Z,7.30
2019-02-11T16:11:57.951Z,7.30
2019-02-11T16:17:02.995Z,7.20
2019-02-11T16:22:08.022Z,7.10
2019-02-11T16:27:13.509Z,7.00
2019-02-11T16:32:18.957Z,7.10
2019-02-11T16:37:24.351Z,6.90
2019-02-11T16:42:29.597Z,6.70
2019-02-11T16:47:34.772Z,6.60
2019-02-11T16:52:39.808Z,6.70
2019-02-11T16:57:45.033Z,6.80
2019-02-11T17:02:50.354Z,6.70
2019-02-11T17:07:56.021Z,6.60
2019-02-11T17:13:01.993Z,6.70
2019-02-11T17:18:07.185Z,6.50
2019-02-11T17:23:12.095Z,6.60
2019-02-11T17:28:17.585Z,6.70
2019-02-11T17:33:22.870Z,6.50
2019-02-11T17:38:27.879Z,6.30
2019-02-11T17:43:33.265Z,6.20
2019-02-11T17:48:38.138Z,6.40
2019-02-11T17:53:43.097Z,6.50
2019-02-11T17:58:48.218Z,6.40
2019-02-11T18:03:53.832Z,6.40
2019-02-11T18:08:59.294Z,6.50
2019-02-11T18:14:04.813Z,6.50
2019-02-11T18:19:10.062Z,6.60
2019-02-11T18:24:15.662Z,6.50
2019-02-11T18:29:23.577Z,6.60
2019-02-11T18:34:28.573Z,6.60
2019-02-11T18:39:34.865Z,6.20
2019-02-11T18:44:40.563Z,6.30
2019-02-11T18:49:46.492Z,6.30
2019-02-11T18:54:51.490Z,6.20
2019-02-11T18:59:56.930Z,6.30
2019-02-11T19:05:04.261Z,6.10
2019-02-11T19:10:10.624Z,6.10
2019-02-11T19:15:16.005Z,6.10
2019-02-11T19:20:22.006Z,6.00
2019-02-11T19:25:27.378Z,6.10
2019-02-11T19:30:32.958Z,6.10
2019-02-11T19:35:41.263Z,6.10
2019-02-11T19:40:48.982Z,6.10
2019-02-11T19:45:55.974Z,5.90
2019-02-11T19:51:01.269Z,5.60
2019-02-11T19:56:07.227Z,5.70
2019-02-11T20:01:13.724Z,5.50
2019-02-11T20:06:20.824Z,5.50
2019-02-11T20:11:33.601Z,5.60
2019-02-11T20:16:40.008Z,5.60
2019-02-11T20:21:48.418Z,5.60
2019-02-11T20:26:54.619Z,5.50
2019-02-11T20:32:03.027Z,5.40
2019-02-11T20:37:08.606Z,5.30
2019-02-11T20:42:14.375Z,5.20
2019-02-11T20:47:19.753Z,5.20
2019-02-11T20:52:25.610Z,5.10
2019-02-11T20:57:31.273Z,5.00
2019-02-11T21:02:40.859Z,5.10
2019-02-11T21:07:46.436Z,5.20
2019-02-11T21:12:51.493Z,5.20
2019-02-11T21:18:00.073Z,5.00
2019-02-11T21:23:08.951Z,5.10
2019-02-11T21:28:14.446Z,4.90
2019-02-11T21:33:20.306Z,5.00
2019-02-11T21:38:25.559Z,4.80
2019-02-11T21:43:33.124Z,4.60
2019-02-11T21:48:38.529Z,4.60
2019-02-11T21:53:43.989Z,4.70
2019-02-11T21:58:48.879Z,4.70
2019-02-11T22:03:54.326Z,4.70
2019-02-11T22:08:59.369Z,4.70
2019-02-11T22:14:04.238Z,4.50
2019-02-11T22:19:09.370Z,4.80
2019-02-11T22:24:14.365Z,4.60
2019-02-11T22:29:19.553Z,4.40
2019-02-11T22:34:24.719Z,4.60
2019-02-11T22:39:29.819Z,4.50
2019-02-11T22:44:34.667Z,4.60
2019-02-11T22:49:39.901Z,4.70
2019-02-11T22:54:45.112Z,4.60
2019-02-11T22:59:50.148Z,4.40
2019-02-11T23:04:56.127Z,4.30
2019-02-11T23:10:01.204Z,4.50
2019-02-11T23:15:06.641Z,4.50
2019-02-11T23:20:11.522Z,4.40
2019-02-11T23:25:16.721Z,4.30
2019-02-11T23:30:21.638Z,4.30
2019-02-11T23:35:26.914Z,4.10
2019-02-11T23:40:33.173Z,4.30
2019-02-11T23:45:38.093Z,4.30
2019-02-11T23:50:42.940Z,4.40
2019-02-11T23:55:47.913Z,4.40
